createdAt,value
2018-06-20T00:01:54.875Z,16.37
2018-06-20T00:04:23.084Z,15.00
2018-06-20T00:06:51.287Z,14.28
2018-06-20T00:09:19.483Z,12.60
2018-06-20T00:11:47.710Z,12.80
2018-06-20T00:14:15.994Z,14.60
2018-06-20T00:16:44.265Z,13.93
2018-06-20T00:19:12.457Z,13.93
2018-06-20T00:21:40.675Z,15.88
2018-06-20T00:24:08.901Z,15.20
2018-06-20T00:26:37.108Z,15.93
2018-06-20T00:29:05.331Z,14.68
2018-06-20T00:31:33.546Z,18.82
2018-06-20T00:34:01.541Z,15.48
2018-06-20T00:36:29.750Z,16.45
2018-06-20T00:38:57.954Z,16.42
2018-06-20T00:41:26.213Z,14.78
2018-06-20T00:43:54.414Z,17.37
2018-06-20T00:46:22.663Z,16.35
2018-06-20T00:48:50.913Z,15.35
2018-06-20T00:51:19.106Z,18.45
2018-06-20T00:53:47.327Z,18.90
2018-06-20T00:56:22.475Z,17.48
2018-06-20T00:58:50.548Z,15.13
2018-06-20T01:01:19.026Z,17.12
2018-06-20T01:03:47.236Z,16.75
2018-06-20T01:06:15.474Z,18.57
2018-06-20T01:08:43.686Z,15.80
2018-06-20T01:11:12.400Z,17.48
2018-06-20T01:13:40.609Z,15.55
2018-06-20T01:16:08.815Z,18.32
2018-06-20T01:18:37.002Z,15.23
2018-06-20T01:21:05.202Z,18.52
2018-06-20T01:23:33.443Z,18.45
2018-06-20T01:26:01.649Z,18.55
2018-06-20T01:28:29.873Z,19.42
2018-06-20T01:30:58.073Z,23.20
2018-06-20T01:33:26.330Z,21.68
2018-06-20T01:35:54.525Z,18.32
2018-06-20T01:38:22.727Z,19.00
2018-06-20T01:40:50.963Z,20.72
2018-06-20T01:43:19.353Z,22.20
2018-06-20T01:45:47.618Z,20.23
2018-06-20T01:48:15.825Z,22.22
2018-06-20T01:50:44.035Z,20.40
2018-06-20T01:53:12.238Z,19.40
2018-06-20T01:55:40.488Z,20.75
2018-06-20T01:58:08.647Z,19.60
2018-06-20T02:00:36.840Z,23.65
2018-06-20T02:03:05.088Z,18.98
2018-06-20T02:05:33.287Z,20.88
2018-06-20T02:08:01.495Z,18.80
2018-06-20T02:10:29.690Z,19.25
2018-06-20T02:12:57.882Z,21.77
2018-06-20T02:15:26.082Z,23.00
2018-06-20T02:17:54.323Z,23.22
2018-06-20T02:20:22.525Z,20.72
2018-06-20T02:22:50.737Z,23.73
2018-06-20T02:25:18.952Z,23.42
2018-06-20T02:27:47.179Z,26.73
2018-06-20T02:30:15.374Z,21.12
2018-06-20T02:32:43.558Z,25.55
2018-06-20T02:35:11.751Z,21.45
2018-06-20T02:37:39.942Z,20.48
2018-06-20T02:40:08.159Z,23.38
2018-06-20T02:42:36.369Z,25.97
2018-06-20T02:45:04.578Z,25.52
2018-06-20T02:47:38.131Z,23.12
2018-06-20T02:50:06.319Z,23.18
2018-06-20T02:52:34.554Z,26.85
2018-06-20T02:55:02.716Z,24.70
2018-06-20T02:57:31.170Z,20.65
2018-06-20T02:59:59.452Z,25.62
2018-06-20T03:02:27.637Z,24.02
2018-06-20T03:04:55.818Z,27.05
2018-06-20T03:07:24.095Z,26.37
2018-06-20T03:09:52.268Z,29.67
2018-06-20T03:12:20.489Z,24.82
2018-06-20T03:14:48.704Z,25.80
2018-06-20T03:17:16.897Z,29.37
2018-06-20T03:19:45.074Z,29.12
2018-06-20T03:22:13.282Z,27.10
2018-06-20T03:24:41.470Z,25.65
2018-06-20T03:27:09.658Z,32.90
2018-06-20T03:29:37.848Z,27.30
2018-06-20T03:32:06.030Z,31.70
2018-06-20T03:34:34.210Z,31.02
2018-06-20T03:37:02.401Z,30.55
2018-06-20T03:39:30.571Z,31.75
2018-06-20T03:41:58.737Z,31.27
2018-06-20T03:44:27.008Z,32.30
2018-06-20T03:46:55.430Z,31.87
2018-06-20T03:49:23.608Z,34.50
2018-06-20T03:51:51.810Z,32.88
2018-06-20T03:54:20.001Z,33.05
2018-06-20T03:56:48.161Z,31.17
2018-06-20T03:59:16.345Z,29.23
2018-06-20T04:01:44.547Z,31.85
2018-06-20T04:04:12.710Z,33.02
2018-06-20T04:06:40.922Z,32.40
2018-06-20T04:09:11.493Z,29.90
2018-06-20T04:11:39.689Z,32.03
2018-06-20T04:14:07.882Z,30.27
2018-06-20T04:16:36.069Z,30.65
2018-06-20T04:19:04.242Z,34.53
2018-06-20T04:21:32.481Z,31.70
2018-06-20T04:24:00.669Z,39.23
2018-06-20T04:26:28.845Z,33.65
2018-06-20T04:28:57.030Z,39.53
2018-06-20T04:31:25.204Z,37.78
2018-06-20T04:33:53.690Z,29.18
2018-06-20T04:36:21.894Z,30.97
2018-06-20T04:38:50.137Z,30.65
2018-06-20T04:41:18.328Z,35.10
2018-06-20T04:43:46.529Z,35.05
2018-06-20T04:46:14.693Z,33.80
2018-06-20T04:48:42.888Z,34.92
2018-06-20T04:51:11.080Z,37.83
2018-06-20T04:53:39.258Z,37.25
2018-06-20T04:56:07.493Z,40.03
2018-06-20T04:58:35.686Z,36.68
2018-06-20T05:01:03.877Z,35.43
2018-06-20T05:03:32.101Z,35.80
2018-06-20T05:06:00.289Z,39.03
2018-06-20T05:08:28.450Z,38.33
2018-06-20T05:10:56.632Z,39.05
2018-06-20T05:13:24.801Z,34.55
2018-06-20T05:15:52.969Z,37.90
2018-06-20T05:18:21.133Z,34.08
2018-06-20T05:20:49.409Z,37.48
2018-06-20T05:23:17.576Z,36.53
2018-06-20T05:25:45.894Z,36.58
2018-06-20T05:28:14.061Z,37.93
2018-06-20T05:30:42.289Z,36.50
2018-06-20T05:33:10.458Z,39.18
2018-06-20T05:35:38.625Z,38.08
2018-06-20T05:38:06.799Z,37.98
2018-06-20T05:40:34.977Z,37.55
2018-06-20T05:43:03.143Z,37.42
2018-06-20T05:45:31.451Z,33.92
2018-06-20T05:47:59.666Z,35.10
2018-06-20T05:50:27.841Z,37.80
2018-06-20T05:52:56.064Z,36.42
2018-06-20T05:55:24.246Z,36.40
2018-06-20T05:57:52.513Z,33.25
2018-06-20T06:00:20.814Z,35.30
2018-06-20T06:02:49.061Z,34.80
2018-06-20T06:05:17.313Z,32.40
2018-06-20T06:07:45.515Z,33.83
2018-06-20T06:10:15.599Z,35.83
2018-06-20T06:12:44.062Z,35.88
2018-06-20T06:15:12.237Z,36.95
2018-06-20T06:17:40.674Z,35.48
2018-06-20T06:20:09.518Z,33.23
2018-06-20T06:22:37.689Z,29.10
2018-06-20T06:25:05.882Z,26.70
2018-06-20T06:27:34.077Z,31.60
2018-06-20T06:30:02.437Z,32.93
2018-06-20T06:32:30.662Z,31.97
2018-06-20T06:34:58.896Z,27.02
2018-06-20T06:37:27.067Z,29.50
2018-06-20T06:39:55.264Z,25.88
2018-06-20T06:42:23.473Z,28.00
2018-06-20T06:44:52.014Z,29.65
2018-06-20T06:47:20.282Z,25.10
2018-06-20T06:49:48.482Z,26.68
2018-06-20T06:52:16.641Z,25.02
2018-06-20T06:54:44.806Z,22.82
2018-06-20T06:57:13.070Z,23.90
2018-06-20T06:59:41.335Z,25.43
2018-06-20T07:02:09.506Z,25.68
2018-06-20T07:04:37.791Z,23.80
2018-06-20T07:07:06.022Z,20.95
2018-06-20T07:09:34.245Z,21.35
2018-06-20T07:12:02.461Z,23.00
2018-06-20T07:14:30.739Z,24.45
2018-06-20T07:16:58.921Z,22.93
2018-06-20T07:19:27.091Z,21.90
2018-06-20T07:21:55.254Z,22.20
2018-06-20T07:24:23.488Z,22.22
2018-06-20T07:26:51.605Z,25.90
2018-06-20T07:29:19.780Z,24.52
2018-06-20T07:31:47.930Z,20.40
2018-06-20T07:34:16.344Z,22.75
2018-06-20T07:36:44.285Z,24.10
2018-06-20T07:39:12.453Z,24.50
2018-06-20T07:41:40.617Z,33.45
2018-06-20T07:44:08.838Z,24.05
2018-06-20T07:46:37.009Z,21.68
2018-06-20T07:49:05.249Z,22.00
2018-06-20T07:51:33.438Z,20.92
2018-06-20T07:54:01.626Z,21.15
2018-06-20T07:56:29.797Z,23.18
2018-06-20T07:58:58.464Z,23.30
2018-06-20T08:01:43.681Z,22.65
2018-06-20T08:04:17.369Z,24.12
2018-06-20T08:06:50.945Z,21.33
2018-06-20T08:09:24.405Z,26.97
2018-06-20T08:11:58.057Z,23.27
2018-06-20T08:14:31.721Z,24.10
2018-06-20T08:17:05.551Z,21.65
2018-06-20T08:19:39.281Z,48.75
2018-06-20T08:22:07.465Z,30.17
2018-06-20T08:24:36.524Z,23.30
2018-06-20T08:27:04.753Z,23.15
2018-06-20T08:29:32.940Z,35.88
2018-06-20T08:32:01.164Z,24.45
2018-06-20T08:34:29.329Z,23.10
2018-06-20T08:36:57.528Z,21.23
2018-06-20T08:39:25.725Z,20.65
2018-06-20T08:41:53.918Z,20.40
2018-06-20T08:44:22.169Z,19.48
2018-06-20T08:46:50.410Z,20.02
2018-06-20T08:49:18.588Z,18.20
2018-06-20T08:51:46.845Z,18.15
2018-06-20T08:54:15.000Z,17.02
2018-06-20T08:56:43.181Z,15.60
2018-06-20T08:59:11.342Z,20.15
2018-06-20T09:01:39.662Z,19.75
2018-06-20T09:04:13.116Z,21.68
2018-06-20T09:06:46.726Z,21.75
2018-06-20T09:09:20.438Z,22.07
2018-06-20T09:11:53.830Z,18.02
2018-06-20T09:14:22.084Z,17.40
2018-06-20T09:16:55.771Z,17.67
2018-06-20T09:19:29.473Z,15.60
2018-06-20T09:21:57.704Z,15.28
2018-06-20T09:24:26.137Z,14.23
2018-06-20T09:26:54.313Z,14.80
2018-06-20T09:29:22.476Z,14.70
2018-06-20T09:31:50.649Z,15.28
2018-06-20T09:34:18.805Z,14.03
2018-06-20T09:36:47.001Z,14.38
2018-06-20T09:39:15.182Z,15.58
2018-06-20T09:41:43.348Z,14.68
2018-06-20T09:44:11.519Z,16.37
2018-06-20T09:46:39.685Z,16.25
2018-06-20T09:49:07.894Z,16.80
2018-06-20T09:51:36.073Z,16.42
2018-06-20T09:54:04.246Z,17.05
2018-06-20T09:56:32.420Z,15.53
2018-06-20T09:59:06.027Z,16.65
2018-06-20T10:01:39.836Z,16.95
2018-06-20T10:04:13.349Z,15.83
2018-06-20T10:06:46.821Z,16.35
2018-06-20T10:09:20.349Z,15.03
2018-06-20T10:11:54.102Z,14.90
2018-06-20T10:14:22.321Z,16.62
2018-06-20T10:16:50.476Z,15.65
2018-06-20T10:19:18.653Z,16.02
2018-06-20T10:21:46.893Z,16.80
2018-06-20T10:24:15.149Z,14.87
2018-06-20T10:26:43.361Z,15.53
2018-06-20T10:29:11.577Z,14.18
2018-06-20T10:31:39.777Z,14.20
2018-06-20T10:34:07.972Z,15.00
2018-06-20T10:36:36.136Z,14.93
2018-06-20T10:39:06.937Z,15.05
2018-06-20T10:41:37.044Z,13.88
2018-06-20T10:44:11.734Z,14.35
2018-06-20T10:46:46.075Z,14.55
2018-06-20T10:49:15.439Z,15.03
2018-06-20T10:51:44.190Z,14.40
2018-06-20T10:54:12.333Z,14.47
2018-06-20T10:56:45.847Z,15.75
2018-06-20T10:59:19.532Z,14.90
2018-06-20T11:01:53.250Z,15.58
2018-06-20T11:04:26.849Z,15.28
2018-06-20T11:07:00.562Z,15.85
2018-06-20T11:09:34.229Z,14.28
2018-06-20T11:12:07.707Z,14.65
2018-06-20T11:14:41.365Z,15.58
2018-06-20T11:17:09.526Z,15.80
2018-06-20T11:19:37.680Z,14.83
2018-06-20T11:22:05.894Z,14.80
2018-06-20T11:24:34.079Z,13.85
2018-06-20T11:27:02.229Z,14.35
2018-06-20T11:29:30.402Z,14.15
2018-06-20T11:31:58.607Z,15.20
2018-06-20T11:34:26.773Z,12.63
2018-06-20T11:36:55.045Z,13.43
2018-06-20T11:39:23.264Z,12.37
2018-06-20T11:41:51.155Z,11.15
2018-06-20T11:44:19.330Z,11.65
2018-06-20T11:46:52.871Z,12.40
2018-06-20T11:49:20.817Z,11.08
2018-06-20T11:51:49.117Z,11.70
2018-06-20T11:54:17.470Z,10.60
2018-06-20T11:56:45.681Z,11.30
2018-06-20T11:59:19.289Z,11.05
2018-06-20T12:01:53.067Z,9.48
2018-06-20T12:04:26.426Z,9.43
2018-06-20T12:07:00.115Z,8.48
2018-06-20T12:09:33.674Z,8.40
2018-06-20T12:12:07.341Z,9.03
2018-06-20T12:14:40.889Z,7.58
2018-06-20T12:17:08.317Z,8.40
2018-06-20T12:19:41.819Z,7.78
2018-06-20T12:22:15.537Z,7.08
2018-06-20T12:24:49.122Z,8.18
2018-06-20T12:27:22.794Z,8.03
2018-06-20T12:29:56.190Z,8.30
2018-06-20T12:32:29.872Z,8.83
2018-06-20T12:35:03.565Z,7.50
2018-06-20T12:37:37.073Z,7.17
2018-06-20T12:40:09.533Z,7.85
2018-06-20T12:42:43.006Z,7.15
2018-06-20T12:45:13.751Z,6.45
2018-06-20T12:47:48.070Z,6.58
2018-06-20T12:50:22.053Z,5.75
2018-06-20T12:52:50.403Z,5.12
2018-06-20T12:55:18.602Z,5.72
2018-06-20T12:57:46.777Z,5.62
2018-06-20T13:00:15.254Z,6.15
2018-06-20T13:02:43.749Z,5.25
2018-06-20T13:05:12.005Z,5.50
2018-06-20T13:07:40.198Z,6.50
2018-06-20T13:10:08.413Z,6.00
2018-06-20T13:12:36.881Z,4.47
2018-06-20T13:15:05.125Z,6.00
2018-06-20T13:17:33.921Z,6.12
2018-06-20T13:20:02.207Z,7.58
2018-06-20T13:22:30.509Z,4.22
2018-06-20T13:24:59.017Z,6.12
2018-06-20T13:27:33.994Z,5.92
2018-06-20T13:30:07.546Z,5.90
2018-06-20T13:32:41.357Z,4.28
2018-06-20T13:35:15.449Z,5.10
2018-06-20T13:37:49.165Z,4.12
2018-06-20T13:40:22.754Z,4.50
2018-06-20T13:42:56.454Z,4.83
2018-06-20T13:45:30.118Z,4.78
2018-06-20T13:48:03.817Z,4.92
2018-06-20T13:50:32.126Z,4.78
2018-06-20T13:53:00.302Z,4.10
2018-06-20T13:55:28.456Z,5.20
2018-06-20T13:57:56.695Z,5.40
2018-06-20T14:00:24.933Z,4.15
2018-06-20T14:02:53.097Z,4.45
2018-06-20T14:05:21.286Z,4.58
2018-06-20T14:07:49.461Z,3.75
2018-06-20T14:10:17.751Z,6.75
2018-06-20T14:12:45.918Z,3.72
2018-06-20T14:15:14.125Z,4.22
2018-06-20T14:17:42.144Z,3.52
2018-06-20T14:20:15.966Z,4.25
2018-06-20T14:22:44.128Z,4.03
2018-06-20T14:25:12.339Z,6.08
2018-06-20T14:27:40.509Z,4.50
2018-06-20T14:30:08.823Z,4.42
2018-06-20T14:32:42.466Z,3.40
2018-06-20T14:35:15.985Z,4.95
2018-06-20T14:37:49.495Z,4.05
2018-06-20T14:41:25.678Z,3.20
2018-06-20T14:43:59.317Z,3.98
2018-06-20T14:46:29.290Z,5.20
2018-06-20T14:48:57.454Z,4.85
2018-06-20T14:51:25.388Z,3.60
2018-06-20T14:53:53.721Z,4.10
2018-06-20T14:56:21.922Z,3.65
2018-06-20T14:58:50.104Z,3.02
2018-06-20T15:01:18.302Z,3.62
2018-06-20T15:03:46.536Z,2.98
2018-06-20T15:06:14.893Z,4.62
2018-06-20T15:08:43.114Z,4.72
2018-06-20T15:11:11.355Z,3.83
2018-06-20T15:13:39.485Z,3.67
2018-06-20T15:16:13.114Z,3.20
2018-06-20T15:18:41.301Z,4.65
2018-06-20T15:21:09.514Z,3.27
2018-06-20T15:23:37.681Z,4.83
2018-06-20T15:26:11.245Z,4.95
2018-06-20T15:28:44.822Z,3.15
2018-06-20T15:31:18.583Z,3.52
2018-06-20T15:33:52.137Z,3.50
2018-06-20T15:36:25.682Z,3.58
2018-06-20T15:38:53.955Z,5.45
2018-06-20T15:41:22.138Z,4.42
2018-06-20T15:43:50.318Z,3.72
2018-06-20T15:46:18.494Z,3.58
2018-06-20T15:48:46.717Z,7.67
2018-06-20T15:51:14.961Z,4.22
2018-06-20T15:53:43.165Z,5.10
2018-06-20T15:56:12.974Z,4.12
2018-06-20T15:58:41.221Z,6.12
2018-06-20T16:01:09.379Z,3.80
2018-06-20T16:03:37.618Z,4.17
2018-06-20T16:06:06.163Z,4.87
2018-06-20T16:08:38.578Z,4.62
2018-06-20T16:11:06.826Z,5.85
2018-06-20T16:13:35.067Z,4.78
2018-06-20T16:16:03.243Z,8.00
2018-06-20T16:18:31.413Z,5.85
2018-06-20T16:21:05.094Z,5.95
2018-06-20T16:23:38.853Z,5.65
2018-06-20T16:26:12.402Z,7.72
2018-06-20T16:28:46.107Z,5.90
2018-06-20T16:31:14.274Z,5.65
2018-06-20T16:33:42.470Z,6.50
2018-06-20T16:36:10.630Z,5.08
2018-06-20T16:38:38.829Z,10.95
2018-06-20T16:41:07.010Z,5.83
2018-06-20T16:43:35.200Z,5.60
2018-06-20T16:46:03.134Z,5.45
2018-06-20T16:48:31.313Z,4.17
2018-06-20T16:50:59.554Z,7.00
2018-06-20T16:53:27.702Z,4.45
2018-06-20T16:55:55.902Z,4.78
2018-06-20T16:58:24.082Z,5.00
2018-06-20T17:00:56.550Z,3.58
2018-06-20T17:03:24.777Z,3.98
2018-06-20T17:05:53.010Z,5.08
2018-06-20T17:08:21.179Z,4.95
2018-06-20T17:10:49.339Z,4.30
2018-06-20T17:13:23.023Z,3.50
2018-06-20T17:15:56.718Z,3.67
2018-06-20T17:18:30.162Z,3.65
2018-06-20T17:21:03.822Z,2.85
2018-06-20T17:23:37.362Z,3.35
2018-06-20T17:26:05.550Z,4.80
2018-06-20T17:28:33.701Z,5.20
2018-06-20T17:31:01.874Z,4.08
2018-06-20T17:33:30.122Z,3.90
2018-06-20T17:35:58.617Z,3.55
2018-06-20T17:38:26.777Z,3.15
2018-06-20T17:40:54.945Z,7.87
2018-06-20T17:43:23.245Z,4.12
2018-06-20T17:45:51.442Z,3.22
2018-06-20T17:48:19.682Z,4.35
2018-06-20T17:50:47.859Z,4.78
2018-06-20T17:53:16.087Z,3.22
2018-06-20T17:55:44.262Z,2.85
2018-06-20T17:58:12.499Z,3.47
2018-06-20T18:00:46.117Z,2.55
2018-06-20T18:03:14.609Z,4.08
2018-06-20T18:05:48.121Z,3.37
2018-06-20T18:08:21.814Z,3.35
2018-06-20T18:10:55.432Z,6.58
2018-06-20T18:13:28.059Z,3.25
2018-06-20T18:16:01.655Z,2.45
2018-06-20T18:18:29.886Z,2.55
2018-06-20T18:20:58.092Z,5.28
2018-06-20T18:23:26.305Z,6.20
2018-06-20T18:25:54.478Z,3.45
2018-06-20T18:28:22.674Z,4.05
2018-06-20T18:30:50.834Z,3.62
2018-06-20T18:33:19.125Z,2.95
2018-06-20T18:35:47.319Z,5.28
2018-06-20T18:38:15.486Z,3.52
2018-06-20T18:40:43.687Z,5.12
2018-06-20T18:43:11.852Z,4.35
2018-06-20T18:45:40.058Z,3.55
2018-06-20T18:48:13.653Z,5.78
2018-06-20T18:50:41.855Z,7.12
2018-06-20T18:53:10.038Z,6.60
2018-06-20T18:55:38.270Z,4.72
2018-06-20T18:58:11.861Z,4.60
2018-06-20T19:01:45.111Z,4.30
2018-06-20T19:04:18.789Z,3.95
2018-06-20T19:06:52.400Z,3.27
2018-06-20T19:09:22.860Z,3.87
2018-06-20T19:11:51.038Z,2.92
2018-06-20T19:14:19.209Z,3.50
2018-06-20T19:16:47.370Z,4.45
2018-06-20T19:19:15.540Z,3.75
2018-06-20T19:21:43.746Z,4.28
2018-06-20T19:24:11.985Z,3.90
2018-06-20T19:26:40.220Z,4.55
2018-06-20T19:29:08.375Z,3.55
2018-06-20T19:31:36.662Z,4.87
2018-06-20T19:34:04.938Z,3.65
2018-06-20T19:36:33.309Z,5.92
2018-06-20T19:39:05.628Z,4.72
2018-06-20T19:41:33.733Z,4.22
2018-06-20T19:44:07.242Z,6.12
2018-06-20T19:46:35.463Z,4.17
2018-06-20T19:49:03.647Z,4.72
2018-06-20T19:51:31.819Z,4.37
2018-06-20T19:54:00.027Z,4.70
2018-06-20T19:56:28.253Z,5.80
2018-06-20T19:58:56.445Z,4.87
2018-06-20T20:01:24.668Z,5.30
2018-06-20T20:03:52.877Z,5.45
2018-06-20T20:06:22.280Z,5.22
2018-06-20T20:08:50.541Z,4.53
2018-06-20T20:11:18.703Z,5.62
2018-06-20T20:13:46.998Z,5.67
2018-06-20T20:16:15.234Z,7.53
2018-06-20T20:18:43.442Z,5.47
2018-06-20T20:21:11.669Z,6.30
2018-06-20T20:23:39.892Z,5.80
2018-06-20T20:26:08.165Z,7.22
2018-06-20T20:28:36.342Z,6.40
2018-06-20T20:31:04.504Z,5.17
2018-06-20T20:33:32.676Z,5.58
2018-06-20T20:36:00.846Z,5.67
2018-06-20T20:38:29.029Z,5.17
2018-06-20T20:40:57.192Z,7.85
2018-06-20T20:43:25.361Z,5.95
2018-06-20T20:45:53.544Z,5.22
2018-06-20T20:48:21.735Z,5.25
2018-06-20T20:50:49.918Z,6.55
2018-06-20T20:53:18.093Z,5.42
2018-06-20T20:55:46.306Z,5.72
2018-06-20T20:58:14.481Z,6.47
2018-06-20T21:00:42.701Z,10.00
2018-06-20T21:03:10.883Z,7.17
2018-06-20T21:05:39.760Z,7.50
2018-06-20T21:08:07.921Z,9.28
2018-06-20T21:10:36.202Z,8.10
2018-06-20T21:13:04.393Z,7.40
2018-06-20T21:15:32.585Z,9.80
2018-06-20T21:18:00.854Z,9.73
2018-06-20T21:20:29.030Z,8.05
2018-06-20T21:22:57.201Z,8.98
2018-06-20T21:25:25.398Z,9.48
2018-06-20T21:27:53.784Z,8.65
2018-06-20T21:30:21.926Z,8.78
2018-06-20T21:32:50.103Z,9.60
2018-06-20T21:35:18.296Z,8.80
2018-06-20T21:37:46.464Z,8.53
2018-06-20T21:40:14.637Z,7.83
2018-06-20T21:42:42.806Z,8.73
2018-06-20T21:45:10.972Z,8.95
2018-06-20T21:47:39.156Z,8.35
2018-06-20T21:50:07.342Z,8.48
2018-06-20T21:52:35.526Z,8.25
2018-06-20T21:55:03.731Z,9.60
2018-06-20T21:57:31.937Z,12.10
2018-06-20T22:00:00.120Z,8.88
2018-06-20T22:02:28.281Z,8.30
2018-06-20T22:04:56.457Z,9.33
2018-06-20T22:07:24.397Z,10.28
2018-06-20T22:09:52.557Z,9.43
2018-06-20T22:12:20.773Z,9.33
2018-06-20T22:14:48.996Z,9.85
2018-06-20T22:17:17.234Z,9.78
2018-06-20T22:19:45.432Z,11.08
2018-06-20T22:22:13.685Z,11.22
2018-06-20T22:24:41.870Z,10.50
2018-06-20T22:27:10.050Z,10.98
2018-06-20T22:29:38.229Z,9.98
2018-06-20T22:32:06.425Z,10.80
2018-06-20T22:34:34.614Z,8.98
2018-06-20T22:37:02.802Z,10.38
2018-06-20T22:39:30.957Z,9.40
2018-06-20T22:41:59.138Z,9.55
2018-06-20T22:44:27.324Z,10.43
2018-06-20T22:46:55.793Z,11.43
2018-06-20T22:49:24.199Z,10.10
2018-06-20T22:51:52.454Z,11.38
2018-06-20T22:54:20.687Z,11.80
2018-06-20T22:56:48.858Z,10.13
2018-06-20T22:59:17.064Z,11.05
2018-06-20T23:01:45.235Z,10.28
2018-06-20T23:04:13.414Z,14.10
2018-06-20T23:06:41.641Z,11.60
2018-06-20T23:09:10.674Z,10.95
2018-06-20T23:11:44.074Z,11.03
2018-06-20T23:14:12.397Z,11.63
2018-06-20T23:16:40.776Z,10.95
2018-06-20T23:19:09.514Z,14.23
2018-06-20T23:21:37.718Z,12.33
2018-06-20T23:24:05.905Z,11.85
2018-06-20T23:26:34.125Z,13.15
2018-06-20T23:29:02.322Z,12.15
2018-06-20T23:31:30.514Z,11.75
2018-06-20T23:33:58.732Z,11.45
2018-06-20T23:36:26.893Z,12.07
2018-06-20T23:38:55.065Z,16.02
2018-06-20T23:41:23.236Z,11.68
2018-06-20T23:43:51.407Z,11.63
2018-06-20T23:46:19.581Z,11.03
2018-06-20T23:48:47.809Z,10.72
2018-06-20T23:51:16.014Z,11.08
2018-06-20T23:53:44.238Z,10.72
2018-06-20T23:56:12.490Z,10.85
2018-06-20T23:58:40.734Z,10.08
